sensor_id;sensor_type;location;lat;lon;timestamp;P1;durP1;ratioP1;P2;durP2;ratioP2
47778;SDS011;33538;48.432;11.350;2023-06-26T00:00:58;9.38;;;5.65;;
47778;SDS011;33538;48.432;11.350;2023-06-26T00:03:24;7.95;;;5.38;;
47778;SDS011;33538;48.432;11.350;2023-06-26T00:05:51;10.30;;;5.45;;
47778;SDS011;33538;48.432;11.350;2023-06-26T00:08:18;9.63;;;5.50;;
47778;SDS011;33538;48.432;11.350;2023-06-26T00:10:46;10.20;;;5.38;;
47778;SDS011;33538;48.432;11.350;2023-06-26T00:13:13;10.13;;;5.82;;
47778;SDS011;33538;48.432;11.350;2023-06-26T00:15:40;8.88;;;5.32;;
47778;SDS011;33538;48.432;11.350;2023-06-26T00:18:07;9.35;;;5.38;;
47778;SDS011;33538;48.432;11.350;2023-06-26T00:20:34;9.20;;;5.43;;
47778;SDS011;33538;48.432;11.350;2023-06-26T00:23:01;8.52;;;5.50;;
47778;SDS011;33538;48.432;11.350;2023-06-26T00:25:28;9.65;;;5.65;;
47778;SDS011;33538;48.432;11.350;2023-06-26T00:27:56;12.18;;;5.60;;
47778;SDS011;33538;48.432;11.350;2023-06-26T00:30:22;9.10;;;5.50;;
47778;SDS011;33538;48.432;11.350;2023-06-26T00:32:49;8.23;;;5.60;;
47778;SDS011;33538;48.432;11.350;2023-06-26T00:35:16;7.93;;;5.07;;
47778;SDS011;33538;48.432;11.350;2023-06-26T00:37:43;9.52;;;5.03;;
47778;SDS011;33538;48.432;11.350;2023-06-26T00:40:10;7.15;;;4.43;;
47778;SDS011;33538;48.432;11.350;2023-06-26T00:42:38;9.98;;;4.65;;
47778;SDS011;33538;48.432;11.350;2023-06-26T00:45:07;8.38;;;4.78;;
47778;SDS011;33538;48.432;11.350;2023-06-26T00:47:34;9.13;;;5.30;;
47778;SDS011;33538;48.432;11.350;2023-06-26T00:50:01;8.35;;;4.82;;
47778;SDS011;33538;48.432;11.350;2023-06-26T00:52:28;9.98;;;5.28;;
47778;SDS011;33538;48.432;11.350;2023-06-26T00:54:55;7.60;;;4.53;;
47778;SDS011;33538;48.432;11.350;2023-06-26T00:57:22;7.63;;;4.32;;
47778;SDS011;33538;48.432;11.350;2023-06-26T00:59:49;8.63;;;4.88;;
47778;SDS011;33538;48.432;11.350;2023-06-26T01:02:17;8.85;;;5.35;;
47778;SDS011;33538;48.432;11.350;2023-06-26T01:04:44;8.10;;;4.53;;
47778;SDS011;33538;48.432;11.350;2023-06-26T01:07:11;9.35;;;5.22;;
47778;SDS011;33538;48.432;11.350;2023-06-26T01:09:39;7.70;;;5.10;;
47778;SDS011;33538;48.432;11.350;2023-06-26T01:12:06;8.65;;;5.07;;
47778;SDS011;33538;48.432;11.350;2023-06-26T01:14:33;12.43;;;4.93;;
47778;SDS011;33538;48.432;11.350;2023-06-26T01:17:00;11.00;;;5.38;;
47778;SDS011;33538;48.432;11.350;2023-06-26T01:19:29;9.20;;;5.07;;
47778;SDS011;33538;48.432;11.350;2023-06-26T01:21:59;8.82;;;5.10;;
47778;SDS011;33538;48.432;11.350;2023-06-26T01:24:31;8.13;;;5.05;;
47778;SDS011;33538;48.432;11.350;2023-06-26T01:27:02;9.07;;;4.97;;
47778;SDS011;33538;48.432;11.350;2023-06-26T01:29:30;9.43;;;5.40;;
47778;SDS011;33538;48.432;11.350;2023-06-26T01:31:58;8.73;;;5.07;;
47778;SDS011;33538;48.432;11.350;2023-06-26T01:34:26;8.00;;;5.35;;
47778;SDS011;33538;48.432;11.350;2023-06-26T01:36:53;9.60;;;5.68;;
47778;SDS011;33538;48.432;11.350;2023-06-26T01:39:20;10.60;;;5.22;;
47778;SDS011;33538;48.432;11.350;2023-06-26T01:41:47;9.52;;;5.57;;
47778;SDS011;33538;48.432;11.350;2023-06-26T01:44:17;10.40;;;5.65;;
47778;SDS011;33538;48.432;11.350;2023-06-26T01:46:54;8.95;;;5.00;;
47778;SDS011;33538;48.432;11.350;2023-06-26T01:49:31;7.70;;;5.10;;
47778;SDS011;33538;48.432;11.350;2023-06-26T01:52:07;10.15;;;4.75;;
47778;SDS011;33538;48.432;11.350;2023-06-26T01:54:37;8.68;;;5.40;;
47778;SDS011;33538;48.432;11.350;2023-06-26T01:57:08;9.13;;;5.22;;
47778;SDS011;33538;48.432;11.350;2023-06-26T01:59:37;9.70;;;5.50;;
47778;SDS011;33538;48.432;11.350;2023-06-26T02:02:06;7.88;;;4.80;;
47778;SDS011;33538;48.432;11.350;2023-06-26T02:04:34;10.43;;;5.50;;
47778;SDS011;33538;48.432;11.350;2023-06-26T02:07:00;7.97;;;5.05;;
47778;SDS011;33538;48.432;11.350;2023-06-26T02:09:27;8.98;;;5.50;;
47778;SDS011;33538;48.432;11.350;2023-06-26T02:11:54;8.77;;;5.13;;
47778;SDS011;33538;48.432;11.350;2023-06-26T02:14:21;8.05;;;4.75;;
47778;SDS011;33538;48.432;11.350;2023-06-26T02:16:49;9.70;;;4.85;;
47778;SDS011;33538;48.432;11.350;2023-06-26T02:19:16;9.88;;;4.85;;
47778;SDS011;33538;48.432;11.350;2023-06-26T02:21:42;12.00;;;5.45;;
47778;SDS011;33538;48.432;11.350;2023-06-26T02:24:09;9.07;;;5.15;;
47778;SDS011;33538;48.432;11.350;2023-06-26T02:26:36;9.52;;;5.07;;
47778;SDS011;33538;48.432;11.350;2023-06-26T02:29:03;9.05;;;5.57;;
47778;SDS011;33538;48.432;11.350;2023-06-26T02:31:29;6.95;;;4.82;;
47778;SDS011;33538;48.432;11.350;2023-06-26T02:33:58;8.50;;;5.13;;
47778;SDS011;33538;48.432;11.350;2023-06-26T02:36:24;9.43;;;5.05;;
47778;SDS011;33538;48.432;11.350;2023-06-26T02:38:51;10.63;;;4.88;;
47778;SDS011;33538;48.432;11.350;2023-06-26T02:41:18;7.70;;;4.28;;
47778;SDS011;33538;48.432;11.350;2023-06-26T02:43:45;8.27;;;4.53;;
47778;SDS011;33538;48.432;11.350;2023-06-26T02:46:11;6.93;;;4.70;;
47778;SDS011;33538;48.432;11.350;2023-06-26T02:48:38;9.40;;;5.40;;
47778;SDS011;33538;48.432;11.350;2023-06-26T02:51:07;10.60;;;4.43;;
47778;SDS011;33538;48.432;11.350;2023-06-26T02:53:34;9.30;;;5.07;;
47778;SDS011;33538;48.432;11.350;2023-06-26T02:56:00;8.63;;;4.95;;
47778;SDS011;33538;48.432;11.350;2023-06-26T02:58:27;7.30;;;4.50;;
47778;SDS011;33538;48.432;11.350;2023-06-26T03:00:54;10.73;;;5.18;;
47778;SDS011;33538;48.432;11.350;2023-06-26T03:03:21;9.20;;;5.13;;
47778;SDS011;33538;48.432;11.350;2023-06-26T03:05:48;9.00;;;4.78;;
47778;SDS011;33538;48.432;11.350;2023-06-26T03:08:16;9.55;;;4.95;;
47778;SDS011;33538;48.432;11.350;2023-06-26T03:10:43;10.75;;;4.80;;
47778;SDS011;33538;48.432;11.350;2023-06-26T03:13:09;7.68;;;4.50;;
47778;SDS011;33538;48.432;11.350;2023-06-26T03:15:36;10.30;;;4.38;;
47778;SDS011;33538;48.432;11.350;2023-06-26T03:18:03;7.97;;;4.75;;
47778;SDS011;33538;48.432;11.350;2023-06-26T03:20:30;11.88;;;5.18;;
47778;SDS011;33538;48.432;11.350;2023-06-26T03:22:57;7.63;;;4.40;;
47778;SDS011;33538;48.432;11.350;2023-06-26T03:25:25;8.38;;;5.03;;
47778;SDS011;33538;48.432;11.350;2023-06-26T03:27:52;7.45;;;4.45;;
47778;SDS011;33538;48.432;11.350;2023-06-26T03:30:19;7.43;;;4.28;;
47778;SDS011;33538;48.432;11.350;2023-06-26T03:32:46;9.82;;;4.85;;
47778;SDS011;33538;48.432;11.350;2023-06-26T03:35:13;12.88;;;5.10;;
47778;SDS011;33538;48.432;11.350;2023-06-26T03:37:39;9.00;;;5.28;;
47778;SDS011;33538;48.432;11.350;2023-06-26T03:40:07;9.25;;;5.30;;
47778;SDS011;33538;48.432;11.350;2023-06-26T03:42:37;11.63;;;6.28;;
47778;SDS011;33538;48.432;11.350;2023-06-26T03:45:04;9.73;;;5.03;;
47778;SDS011;33538;48.432;11.350;2023-06-26T03:47:31;8.73;;;5.00;;
47778;SDS011;33538;48.432;11.350;2023-06-26T03:49:58;8.38;;;5.00;;
47778;SDS011;33538;48.432;11.350;2023-06-26T03:52:25;12.07;;;4.97;;
47778;SDS011;33538;48.432;11.350;2023-06-26T03:54:52;9.25;;;5.35;;
47778;SDS011;33538;48.432;11.350;2023-06-26T03:57:19;11.00;;;5.15;;
47778;SDS011;33538;48.432;11.350;2023-06-26T03:59:47;11.00;;;5.07;;
47778;SDS011;33538;48.432;11.350;2023-06-26T04:02:14;10.55;;;5.88;;
47778;SDS011;33538;48.432;11.350;2023-06-26T04:04:41;9.65;;;4.95;;
47778;SDS011;33538;48.432;11.350;2023-06-26T04:07:08;11.90;;;4.70;;
47778;SDS011;33538;48.432;11.350;2023-06-26T04:09:35;9.35;;;5.40;;
47778;SDS011;33538;48.432;11.350;2023-06-26T04:12:02;9.38;;;5.18;;
47778;SDS011;33538;48.432;11.350;2023-06-26T04:14:29;8.90;;;4.72;;
47778;SDS011;33538;48.432;11.350;2023-06-26T04:16:57;8.85;;;5.07;;
47778;SDS011;33538;48.432;11.350;2023-06-26T04:19:25;10.25;;;4.90;;
47778;SDS011;33538;48.432;11.350;2023-06-26T04:21:51;9.10;;;5.63;;
47778;SDS011;33538;48.432;11.350;2023-06-26T04:24:18;10.02;;;5.88;;
47778;SDS011;33538;48.432;11.350;2023-06-26T04:26:45;9.70;;;5.15;;
47778;SDS011;33538;48.432;11.350;2023-06-26T04:29:12;8.38;;;4.38;;
47778;SDS011;33538;48.432;11.350;2023-06-26T04:31:39;9.40;;;4.85;;
47778;SDS011;33538;48.432;11.350;2023-06-26T04:34:07;8.25;;;4.65;;
47778;SDS011;33538;48.432;11.350;2023-06-26T04:36:34;11.27;;;5.95;;
47778;SDS011;33538;48.432;11.350;2023-06-26T04:39:01;9.82;;;5.75;;
47778;SDS011;33538;48.432;11.350;2023-06-26T04:41:28;9.25;;;5.88;;
47778;SDS011;33538;48.432;11.350;2023-06-26T04:43:54;9.02;;;5.30;;
47778;SDS011;33538;48.432;11.350;2023-06-26T04:46:21;11.27;;;5.10;;
47778;SDS011;33538;48.432;11.350;2023-06-26T04:48:48;13.88;;;5.88;;
47778;SDS011;33538;48.432;11.350;2023-06-26T04:51:16;10.23;;;5.35;;
47778;SDS011;33538;48.432;11.350;2023-06-26T04:53:43;13.23;;;5.75;;
47778;SDS011;33538;48.432;11.350;2023-06-26T04:56:10;13.80;;;4.78;;
47778;SDS011;33538;48.432;11.350;2023-06-26T04:58:37;16.15;;;4.85;;
47778;SDS011;33538;48.432;11.350;2023-06-26T05:01:04;10.13;;;4.82;;
47778;SDS011;33538;48.432;11.350;2023-06-26T05:03:30;10.65;;;5.63;;
47778;SDS011;33538;48.432;11.350;2023-06-26T05:05:57;9.85;;;5.32;;
47778;SDS011;33538;48.432;11.350;2023-06-26T05:08:26;9.93;;;5.45;;
47778;SDS011;33538;48.432;11.350;2023-06-26T05:10:53;11.70;;;5.82;;
47778;SDS011;33538;48.432;11.350;2023-06-26T05:13:20;11.02;;;6.65;;
47778;SDS011;33538;48.432;11.350;2023-06-26T05:15:47;13.80;;;6.10;;
47778;SDS011;33538;48.432;11.350;2023-06-26T05:18:14;10.02;;;6.32;;
47778;SDS011;33538;48.432;11.350;2023-06-26T05:20:42;13.73;;;6.35;;
47778;SDS011;33538;48.432;11.350;2023-06-26T05:23:09;13.95;;;6.53;;
47778;SDS011;33538;48.432;11.350;2023-06-26T05:25:39;13.13;;;6.15;;
47778;SDS011;33538;48.432;11.350;2023-06-26T05:28:07;12.13;;;6.15;;
47778;SDS011;33538;48.432;11.350;2023-06-26T05:30:34;12.25;;;6.15;;
47778;SDS011;33538;48.432;11.350;2023-06-26T05:33:02;13.10;;;6.03;;
47778;SDS011;33538;48.432;11.350;2023-06-26T05:35:30;12.02;;;6.10;;
47778;SDS011;33538;48.432;11.350;2023-06-26T05:37:57;10.10;;;6.13;;
47778;SDS011;33538;48.432;11.350;2023-06-26T05:40:25;12.43;;;6.18;;
47778;SDS011;33538;48.432;11.350;2023-06-26T05:42:54;11.38;;;6.03;;
47778;SDS011;33538;48.432;11.350;2023-06-26T05:45:21;15.85;;;7.07;;
47778;SDS011;33538;48.432;11.350;2023-06-26T05:47:48;13.48;;;6.60;;
47778;SDS011;33538;48.432;11.350;2023-06-26T05:50:15;11.10;;;6.47;;
47778;SDS011;33538;48.432;11.350;2023-06-26T05:52:43;13.77;;;7.05;;
47778;SDS011;33538;48.432;11.350;2023-06-26T05:55:11;9.27;;;6.00;;
47778;SDS011;33538;48.432;11.350;2023-06-26T05:57:39;9.63;;;6.07;;
47778;SDS011;33538;48.432;11.350;2023-06-26T06:00:09;9.23;;;5.60;;
47778;SDS011;33538;48.432;11.350;2023-06-26T06:02:37;10.02;;;6.15;;
47778;SDS011;33538;48.432;11.350;2023-06-26T06:05:04;11.65;;;6.10;;
47778;SDS011;33538;48.432;11.350;2023-06-26T06:07:31;10.85;;;6.43;;
47778;SDS011;33538;48.432;11.350;2023-06-26T06:09:58;9.68;;;6.18;;
47778;SDS011;33538;48.432;11.350;2023-06-26T06:12:25;14.82;;;5.85;;
47778;SDS011;33538;48.432;11.350;2023-06-26T06:14:52;11.85;;;5.20;;
47778;SDS011;33538;48.432;11.350;2023-06-26T06:17:20;11.15;;;5.75;;
47778;SDS011;33538;48.432;11.350;2023-06-26T06:19:47;10.05;;;5.40;;
47778;SDS011;33538;48.432;11.350;2023-06-26T06:22:14;9.00;;;5.50;;
47778;SDS011;33538;48.432;11.350;2023-06-26T06:24:41;10.57;;;5.38;;
47778;SDS011;33538;48.432;11.350;2023-06-26T06:27:08;9.30;;;4.85;;
47778;SDS011;33538;48.432;11.350;2023-06-26T06:29:35;8.98;;;5.18;;
47778;SDS011;33538;48.432;11.350;2023-06-26T06:32:02;11.82;;;5.25;;
47778;SDS011;33538;48.432;11.350;2023-06-26T06:34:30;8.82;;;4.93;;
47778;SDS011;33538;48.432;11.350;2023-06-26T06:36:57;11.35;;;5.88;;
47778;SDS011;33538;48.432;11.350;2023-06-26T06:39:24;8.07;;;5.18;;
47778;SDS011;33538;48.432;11.350;2023-06-26T06:41:51;8.73;;;5.53;;
47778;SDS011;33538;48.432;11.350;2023-06-26T06:44:18;8.15;;;5.10;;
47778;SDS011;33538;48.432;11.350;2023-06-26T06:46:44;12.07;;;5.88;;
47778;SDS011;33538;48.432;11.350;2023-06-26T06:49:11;9.75;;;5.63;;
47778;SDS011;33538;48.432;11.350;2023-06-26T06:51:39;8.52;;;4.82;;
47778;SDS011;33538;48.432;11.350;2023-06-26T06:54:06;11.13;;;5.25;;
47778;SDS011;33538;48.432;11.350;2023-06-26T06:56:33;9.90;;;4.82;;
47778;SDS011;33538;48.432;11.350;2023-06-26T06:59:00;7.63;;;4.82;;
47778;SDS011;33538;48.432;11.350;2023-06-26T07:01:26;8.77;;;5.35;;
47778;SDS011;33538;48.432;11.350;2023-06-26T07:03:53;9.45;;;5.32;;
47778;SDS011;33538;48.432;11.350;2023-06-26T07:06:20;9.70;;;5.05;;
47778;SDS011;33538;48.432;11.350;2023-06-26T07:08:48;10.45;;;5.78;;
47778;SDS011;33538;48.432;11.350;2023-06-26T07:11:15;10.25;;;5.90;;
47778;SDS011;33538;48.432;11.350;2023-06-26T07:13:42;9.20;;;5.60;;
47778;SDS011;33538;48.432;11.350;2023-06-26T07:16:08;8.13;;;5.40;;
47778;SDS011;33538;48.432;11.350;2023-06-26T07:18:37;9.45;;;5.43;;
47778;SDS011;33538;48.432;11.350;2023-06-26T07:21:04;7.93;;;4.95;;
47778;SDS011;33538;48.432;11.350;2023-06-26T07:23:31;10.38;;;5.00;;
47778;SDS011;33538;48.432;11.350;2023-06-26T07:25:59;8.63;;;4.78;;
47778;SDS011;33538;48.432;11.350;2023-06-26T07:28:26;8.05;;;5.20;;
47778;SDS011;33538;48.432;11.350;2023-06-26T07:30:53;9.75;;;4.60;;
47778;SDS011;33538;48.432;11.350;2023-06-26T07:33:19;8.27;;;4.65;;
47778;SDS011;33538;48.432;11.350;2023-06-26T07:35:46;7.10;;;4.43;;
47778;SDS011;33538;48.432;11.350;2023-06-26T07:38:13;10.18;;;5.28;;
47778;SDS011;33538;48.432;11.350;2023-06-26T07:40:40;10.98;;;4.97;;
47778;SDS011;33538;48.432;11.350;2023-06-26T07:43:08;8.40;;;5.00;;
47778;SDS011;33538;48.432;11.350;2023-06-26T07:45:35;7.20;;;4.55;;
47778;SDS011;33538;48.432;11.350;2023-06-26T07:48:02;10.13;;;5.50;;
47778;SDS011;33538;48.432;11.350;2023-06-26T07:50:29;7.60;;;4.53;;
47778;SDS011;33538;48.432;11.350;2023-06-26T07:52:55;9.80;;;5.40;;
47778;SDS011;33538;48.432;11.350;2023-06-26T07:55:22;8.80;;;5.32;;
47778;SDS011;33538;48.432;11.350;2023-06-26T07:57:49;9.60;;;4.97;;
47778;SDS011;33538;48.432;11.350;2023-06-26T08:00:17;8.85;;;4.90;;
47778;SDS011;33538;48.432;11.350;2023-06-26T08:02:44;9.63;;;5.25;;
47778;SDS011;33538;48.432;11.350;2023-06-26T08:05:11;7.50;;;4.40;;
47778;SDS011;33538;48.432;11.350;2023-06-26T08:07:38;8.88;;;5.30;;
47778;SDS011;33538;48.432;11.350;2023-06-26T08:10:05;10.13;;;5.53;;
47778;SDS011;33538;48.432;11.350;2023-06-26T08:12:32;9.00;;;4.93;;
47778;SDS011;33538;48.432;11.350;2023-06-26T08:14:59;8.45;;;5.30;;
47778;SDS011;33538;48.432;11.350;2023-06-26T08:17:27;7.25;;;4.97;;
47778;SDS011;33538;48.432;11.350;2023-06-26T08:19:55;8.85;;;4.47;;
47778;SDS011;33538;48.432;11.350;2023-06-26T08:22:23;9.02;;;4.70;;
47778;SDS011;33538;48.432;11.350;2023-06-26T08:24:50;7.97;;;4.57;;
47778;SDS011;33538;48.432;11.350;2023-06-26T08:27:16;7.05;;;4.80;;
47778;SDS011;33538;48.432;11.350;2023-06-26T08:29:43;9.93;;;4.85;;
47778;SDS011;33538;48.432;11.350;2023-06-26T08:32:10;8.88;;;5.47;;
47778;SDS011;33538;48.432;11.350;2023-06-26T08:34:39;7.57;;;4.40;;
47778;SDS011;33538;48.432;11.350;2023-06-26T08:37:06;13.23;;;4.75;;
47778;SDS011;33538;48.432;11.350;2023-06-26T08:39:34;6.35;;;4.68;;
47778;SDS011;33538;48.432;11.350;2023-06-26T08:42:00;8.23;;;4.90;;
47778;SDS011;33538;48.432;11.350;2023-06-26T08:44:27;8.48;;;4.95;;
47778;SDS011;33538;48.432;11.350;2023-06-26T08:46:54;7.15;;;4.45;;
47778;SDS011;33538;48.432;11.350;2023-06-26T08:49:24;7.45;;;4.72;;
47778;SDS011;33538;48.432;11.350;2023-06-26T08:51:57;11.07;;;5.53;;
47778;SDS011;33538;48.432;11.350;2023-06-26T08:54:36;9.02;;;5.07;;
47778;SDS011;33538;48.432;11.350;2023-06-26T08:57:08;8.80;;;5.00;;
47778;SDS011;33538;48.432;11.350;2023-06-26T08:59:36;7.13;;;4.50;;
47778;SDS011;33538;48.432;11.350;2023-06-26T09:02:02;8.02;;;4.68;;
47778;SDS011;33538;48.432;11.350;2023-06-26T09:04:30;7.43;;;4.60;;
47778;SDS011;33538;48.432;11.350;2023-06-26T09:06:58;7.22;;;4.80;;
47778;SDS011;33538;48.432;11.350;2023-06-26T09:09:25;7.70;;;4.60;;
47778;SDS011;33538;48.432;11.350;2023-06-26T09:11:52;9.45;;;5.45;;
47778;SDS011;33538;48.432;11.350;2023-06-26T09:14:19;8.02;;;4.78;;
47778;SDS011;33538;48.432;11.350;2023-06-26T09:16:46;5.82;;;4.18;;
47778;SDS011;33538;48.432;11.350;2023-06-26T09:19:13;8.32;;;5.22;;
47778;SDS011;33538;48.432;11.350;2023-06-26T09:21:40;7.47;;;4.53;;
47778;SDS011;33538;48.432;11.350;2023-06-26T09:24:09;6.53;;;4.53;;
47778;SDS011;33538;48.432;11.350;2023-06-26T09:26:37;10.60;;;4.57;;
47778;SDS011;33538;48.432;11.350;2023-06-26T09:29:05;8.63;;;4.43;;
47778;SDS011;33538;48.432;11.350;2023-06-26T09:31:32;6.45;;;4.35;;
47778;SDS011;33538;48.432;11.350;2023-06-26T09:34:07;6.43;;;4.28;;
47778;SDS011;33538;48.432;11.350;2023-06-26T09:36:34;8.02;;;4.55;;
47778;SDS011;33538;48.432;11.350;2023-06-26T09:39:05;8.27;;;4.70;;
47778;SDS011;33538;48.432;11.350;2023-06-26T09:41:35;6.35;;;4.18;;
47778;SDS011;33538;48.432;11.350;2023-06-26T09:44:02;7.13;;;4.53;;
47778;SDS011;33538;48.432;11.350;2023-06-26T09:46:30;7.15;;;4.10;;
47778;SDS011;33538;48.432;11.350;2023-06-26T09:48:58;5.93;;;4.38;;
47778;SDS011;33538;48.432;11.350;2023-06-26T09:51:27;6.68;;;4.13;;
47778;SDS011;33538;48.432;11.350;2023-06-26T09:53:55;4.72;;;3.83;;
47778;SDS011;33538;48.432;11.350;2023-06-26T09:56:22;7.03;;;4.40;;
47778;SDS011;33538;48.432;11.350;2023-06-26T09:58:50;7.03;;;4.43;;
47778;SDS011;33538;48.432;11.350;2023-06-26T10:01:18;4.68;;;3.90;;
47778;SDS011;33538;48.432;11.350;2023-06-26T10:03:45;6.20;;;4.30;;
47778;SDS011;33538;48.432;11.350;2023-06-26T10:06:12;6.97;;;3.92;;
47778;SDS011;33538;48.432;11.350;2023-06-26T10:08:41;9.20;;;3.83;;
47778;SDS011;33538;48.432;11.350;2023-06-26T10:11:09;7.32;;;4.00;;
47778;SDS011;33538;48.432;11.350;2023-06-26T10:13:42;7.03;;;4.60;;
47778;SDS011;33538;48.432;11.350;2023-06-26T10:16:12;7.55;;;4.07;;
47778;SDS011;33538;48.432;11.350;2023-06-26T10:18:42;4.95;;;3.72;;
47778;SDS011;33538;48.432;11.350;2023-06-26T10:21:10;8.95;;;5.22;;
47778;SDS011;33538;48.432;11.350;2023-06-26T10:23:39;4.68;;;3.78;;
47778;SDS011;33538;48.432;11.350;2023-06-26T10:26:08;7.90;;;4.72;;
47778;SDS011;33538;48.432;11.350;2023-06-26T10:28:37;6.53;;;4.65;;
47778;SDS011;33538;48.432;11.350;2023-06-26T10:31:05;6.18;;;4.20;;
47778;SDS011;33538;48.432;11.350;2023-06-26T10:33:35;6.70;;;3.75;;
47778;SDS011;33538;48.432;11.350;2023-06-26T10:36:13;4.70;;;3.30;;
47778;SDS011;33538;48.432;11.350;2023-06-26T10:38:48;4.80;;;3.90;;
47778;SDS011;33538;48.432;11.350;2023-06-26T10:41:15;6.57;;;3.90;;
47778;SDS011;33538;48.432;11.350;2023-06-26T10:43:48;7.30;;;5.07;;
47778;SDS011;33538;48.432;11.350;2023-06-26T10:46:15;7.18;;;4.63;;
47778;SDS011;33538;48.432;11.350;2023-06-26T10:48:58;6.70;;;4.22;;
47778;SDS011;33538;48.432;11.350;2023-06-26T10:51:25;6.60;;;4.00;;
47778;SDS011;33538;48.432;11.350;2023-06-26T10:53:55;6.25;;;3.75;;
47778;SDS011;33538;48.432;11.350;2023-06-26T10:59:11;5.95;;;3.97;;
47778;SDS011;33538;48.432;11.350;2023-06-26T11:01:40;6.55;;;3.80;;
47778;SDS011;33538;48.432;11.350;2023-06-26T11:04:09;6.78;;;4.32;;
47778;SDS011;33538;48.432;11.350;2023-06-26T11:06:37;5.90;;;3.97;;
47778;SDS011;33538;48.432;11.350;2023-06-26T11:09:08;5.78;;;3.97;;
47778;SDS011;33538;48.432;11.350;2023-06-26T11:14:23;7.63;;;3.83;;
47778;SDS011;33538;48.432;11.350;2023-06-26T11:16:51;7.35;;;3.85;;
47778;SDS011;33538;48.432;11.350;2023-06-26T11:19:19;5.38;;;3.67;;
47778;SDS011;33538;48.432;11.350;2023-06-26T11:21:46;6.63;;;3.90;;
47778;SDS011;33538;48.432;11.350;2023-06-26T11:24:13;5.55;;;3.90;;
47778;SDS011;33538;48.432;11.350;2023-06-26T11:26:40;5.40;;;3.90;;
47778;SDS011;33538;48.432;11.350;2023-06-26T11:29:09;6.15;;;3.60;;
47778;SDS011;33538;48.432;11.350;2023-06-26T11:31:37;5.93;;;4.00;;
47778;SDS011;33538;48.432;11.350;2023-06-26T11:34:05;6.43;;;4.18;;
47778;SDS011;33538;48.432;11.350;2023-06-26T11:36:34;4.82;;;4.15;;
47778;SDS011;33538;48.432;11.350;2023-06-26T11:39:02;5.30;;;4.00;;
47778;SDS011;33538;48.432;11.350;2023-06-26T11:41:30;5.65;;;3.83;;
47778;SDS011;33538;48.432;11.350;2023-06-26T11:44:00;5.18;;;3.85;;
47778;SDS011;33538;48.432;11.350;2023-06-26T11:46:30;6.28;;;4.43;;
47778;SDS011;33538;48.432;11.350;2023-06-26T11:48:57;4.90;;;3.80;;
47778;SDS011;33538;48.432;11.350;2023-06-26T11:51:26;6.07;;;4.05;;
47778;SDS011;33538;48.432;11.350;2023-06-26T11:53:55;5.57;;;4.30;;
47778;SDS011;33538;48.432;11.350;2023-06-26T11:56:22;6.18;;;4.15;;
47778;SDS011;33538;48.432;11.350;2023-06-26T11:58:55;6.82;;;4.18;;
47778;SDS011;33538;48.432;11.350;2023-06-26T12:01:23;5.80;;;4.25;;
47778;SDS011;33538;48.432;11.350;2023-06-26T12:03:51;5.53;;;4.00;;
47778;SDS011;33538;48.432;11.350;2023-06-26T12:06:21;6.95;;;4.53;;
47778;SDS011;33538;48.432;11.350;2023-06-26T12:08:48;5.72;;;4.03;;
47778;SDS011;33538;48.432;11.350;2023-06-26T12:11:16;7.90;;;4.05;;
47778;SDS011;33538;48.432;11.350;2023-06-26T12:13:44;7.00;;;4.53;;
47778;SDS011;33538;48.432;11.350;2023-06-26T12:16:11;6.10;;;4.38;;
47778;SDS011;33538;48.432;11.350;2023-06-26T12:18:37;7.75;;;4.60;;
47778;SDS011;33538;48.432;11.350;2023-06-26T12:21:04;8.93;;;4.65;;
47778;SDS011;33538;48.432;11.350;2023-06-26T12:23:32;6.20;;;4.07;;
47778;SDS011;33538;48.432;11.350;2023-06-26T12:28:44;5.25;;;3.60;;
47778;SDS011;33538;48.432;11.350;2023-06-26T12:31:12;6.68;;;4.43;;
47778;SDS011;33538;48.432;11.350;2023-06-26T12:33:40;6.60;;;4.80;;
47778;SDS011;33538;48.432;11.350;2023-06-26T12:36:10;6.45;;;3.75;;
47778;SDS011;33538;48.432;11.350;2023-06-26T12:38:37;5.07;;;3.80;;
47778;SDS011;33538;48.432;11.350;2023-06-26T12:41:04;6.43;;;4.13;;
47778;SDS011;33538;48.432;11.350;2023-06-26T12:43:32;7.07;;;4.50;;
47778;SDS011;33538;48.432;11.350;2023-06-26T12:46:04;5.57;;;3.85;;
47778;SDS011;33538;48.432;11.350;2023-06-26T12:48:38;5.05;;;3.90;;
47778;SDS011;33538;48.432;11.350;2023-06-26T12:51:09;9.10;;;4.10;;
47778;SDS011;33538;48.432;11.350;2023-06-26T12:53:36;5.10;;;3.53;;
47778;SDS011;33538;48.432;11.350;2023-06-26T12:56:04;6.72;;;3.65;;
47778;SDS011;33538;48.432;11.350;2023-06-26T12:58:32;4.93;;;3.78;;
47778;SDS011;33538;48.432;11.350;2023-06-26T13:00:59;5.65;;;3.80;;
47778;SDS011;33538;48.432;11.350;2023-06-26T13:03:26;5.85;;;4.13;;
47778;SDS011;33538;48.432;11.350;2023-06-26T13:05:53;4.95;;;3.70;;
47778;SDS011;33538;48.432;11.350;2023-06-26T13:08:20;6.85;;;3.47;;
47778;SDS011;33538;48.432;11.350;2023-06-26T13:10:47;6.63;;;4.13;;
47778;SDS011;33538;48.432;11.350;2023-06-26T13:13:14;6.10;;;3.75;;
47778;SDS011;33538;48.432;11.350;2023-06-26T13:15:42;5.22;;;3.90;;
47778;SDS011;33538;48.432;11.350;2023-06-26T13:18:09;7.10;;;3.92;;
47778;SDS011;33538;48.432;11.350;2023-06-26T13:20:36;7.32;;;3.75;;
47778;SDS011;33538;48.432;11.350;2023-06-26T13:23:03;7.80;;;3.97;;
47778;SDS011;33538;48.432;11.350;2023-06-26T13:25:30;6.32;;;4.15;;
47778;SDS011;33538;48.432;11.350;2023-06-26T13:27:57;7.32;;;4.28;;
47778;SDS011;33538;48.432;11.350;2023-06-26T13:30:24;7.22;;;4.90;;
47778;SDS011;33538;48.432;11.350;2023-06-26T13:32:52;5.80;;;4.20;;
47778;SDS011;33538;48.432;11.350;2023-06-26T13:35:19;6.78;;;4.07;;
47778;SDS011;33538;48.432;11.350;2023-06-26T13:37:46;5.20;;;3.67;;
47778;SDS011;33538;48.432;11.350;2023-06-26T13:40:13;5.85;;;3.97;;
47778;SDS011;33538;48.432;11.350;2023-06-26T13:42:40;6.95;;;4.35;;
47778;SDS011;33538;48.432;11.350;2023-06-26T13:45:07;6.72;;;3.85;;
47778;SDS011;33538;48.432;11.350;2023-06-26T13:47:56;12.43;;;4.20;;
47778;SDS011;33538;48.432;11.350;2023-06-26T13:50:23;5.30;;;4.43;;
47778;SDS011;33538;48.432;11.350;2023-06-26T13:52:49;5.88;;;4.38;;
47778;SDS011;33538;48.432;11.350;2023-06-26T13:55:16;6.65;;;4.32;;
47778;SDS011;33538;48.432;11.350;2023-06-26T13:57:44;6.15;;;4.32;;
47778;SDS011;33538;48.432;11.350;2023-06-26T14:00:11;10.00;;;4.32;;
47778;SDS011;33538;48.432;11.350;2023-06-26T14:02:39;6.03;;;4.40;;
47778;SDS011;33538;48.432;11.350;2023-06-26T14:05:08;5.10;;;3.85;;
47778;SDS011;33538;48.432;11.350;2023-06-26T14:07:35;6.85;;;4.53;;
47778;SDS011;33538;48.432;11.350;2023-06-26T14:10:02;7.95;;;4.43;;
47778;SDS011;33538;48.432;11.350;2023-06-26T14:12:30;8.25;;;4.65;;
47778;SDS011;33538;48.432;11.350;2023-06-26T14:14:57;5.88;;;4.45;;
47778;SDS011;33538;48.432;11.350;2023-06-26T14:17:24;6.60;;;4.75;;
47778;SDS011;33538;48.432;11.350;2023-06-26T14:19:51;7.05;;;4.75;;
47778;SDS011;33538;48.432;11.350;2023-06-26T14:22:19;5.38;;;4.03;;
47778;SDS011;33538;48.432;11.350;2023-06-26T14:24:45;7.55;;;4.95;;
47778;SDS011;33538;48.432;11.350;2023-06-26T14:30:41;5.38;;;4.40;;
47778;SDS011;33538;48.432;11.350;2023-06-26T14:33:08;6.82;;;4.57;;
47778;SDS011;33538;48.432;11.350;2023-06-26T14:35:35;6.15;;;4.65;;
47778;SDS011;33538;48.432;11.350;2023-06-26T14:38:03;7.25;;;4.43;;
47778;SDS011;33538;48.432;11.350;2023-06-26T14:40:30;8.40;;;4.72;;
47778;SDS011;33538;48.432;11.350;2023-06-26T14:42:57;5.97;;;4.45;;
47778;SDS011;33538;48.432;11.350;2023-06-26T14:45:24;8.45;;;5.07;;